sensor_id;sensor_type;location;lat;lon;timestamp;P1;durP1;ratioP1;P2;durP2;ratioP2
5710;SDS011;61291;52.524;13.422;2023-04-03T00:01:48;63.10;;;58.37;;
5710;SDS011;61291;52.524;13.422;2023-04-03T00:04:13;63.30;;;58.80;;
5710;SDS011;61291;52.524;13.422;2023-04-03T00:06:39;62.40;;;58.10;;
5710;SDS011;61291;52.524;13.422;2023-04-03T00:09:05;62.27;;;57.37;;
5710;SDS011;61291;52.524;13.422;2023-04-03T00:11:30;63.60;;;58.87;;
5710;SDS011;61291;52.524;13.422;2023-04-03T00:13:56;62.87;;;58.37;;
5710;SDS011;61291;52.524;13.422;2023-04-03T00:16:21;64.43;;;59.80;;
5710;SDS011;61291;52.524;13.422;2023-04-03T00:18:47;65.77;;;61.10;;
5710;SDS011;61291;52.524;13.422;2023-04-03T00:21:12;62.77;;;58.13;;
5710;SDS011;61291;52.524;13.422;2023-04-03T00:23:39;63.03;;;58.40;;
5710;SDS011;61291;52.524;13.422;2023-04-03T00:26:05;63.20;;;58.80;;
5710;SDS011;61291;52.524;13.422;2023-04-03T00:28:30;61.00;;;56.13;;
5710;SDS011;61291;52.524;13.422;2023-04-03T00:30:56;58.80;;;54.70;;
5710;SDS011;61291;52.524;13.422;2023-04-03T00:33:22;60.73;;;55.90;;
5710;SDS011;61291;52.524;13.422;2023-04-03T00:35:49;58.70;;;54.17;;
5710;SDS011;61291;52.524;13.422;2023-04-03T00:38:15;58.30;;;53.90;;
5710;SDS011;61291;52.524;13.422;2023-04-03T00:40:44;61.03;;;56.63;;
5710;SDS011;61291;52.524;13.422;2023-04-03T00:43:13;58.73;;;54.63;;
5710;SDS011;61291;52.524;13.422;2023-04-03T00:45:50;59.00;;;54.63;;
5710;SDS011;61291;52.524;13.422;2023-04-03T00:48:28;60.50;;;56.27;;
5710;SDS011;61291;52.524;13.422;2023-04-03T00:50:57;59.30;;;55.10;;
5710;SDS011;61291;52.524;13.422;2023-04-03T00:53:30;59.63;;;54.90;;
5710;SDS011;61291;52.524;13.422;2023-04-03T00:56:00;61.53;;;56.63;;
5710;SDS011;61291;52.524;13.422;2023-04-03T00:58:28;59.60;;;55.27;;
5710;SDS011;61291;52.524;13.422;2023-04-03T01:01:12;63.13;;;58.53;;
5710;SDS011;61291;52.524;13.422;2023-04-03T01:03:41;63.30;;;58.70;;
5710;SDS011;61291;52.524;13.422;2023-04-03T01:06:06;61.77;;;56.87;;
5710;SDS011;61291;52.524;13.422;2023-04-03T01:08:32;62.60;;;58.30;;
5710;SDS011;61291;52.524;13.422;2023-04-03T01:10:58;63.53;;;58.63;;
5710;SDS011;61291;52.524;13.422;2023-04-03T01:13:28;62.93;;;58.53;;
5710;SDS011;61291;52.524;13.422;2023-04-03T01:15:56;62.23;;;57.40;;
5710;SDS011;61291;52.524;13.422;2023-04-03T01:18:25;61.90;;;57.47;;
5710;SDS011;61291;52.524;13.422;2023-04-03T01:26:11;64.00;;;59.17;;
5710;SDS011;61291;52.524;13.422;2023-04-03T01:28:37;67.07;;;62.60;;
5710;SDS011;61291;52.524;13.422;2023-04-03T01:31:10;64.87;;;59.90;;
5710;SDS011;61291;52.524;13.422;2023-04-03T01:33:45;61.50;;;57.40;;
5710;SDS011;61291;52.524;13.422;2023-04-03T01:36:13;64.33;;;60.03;;
5710;SDS011;61291;52.524;13.422;2023-04-03T01:38:42;61.97;;;57.27;;
5710;SDS011;61291;52.524;13.422;2023-04-03T01:41:07;62.00;;;57.73;;
5710;SDS011;61291;52.524;13.422;2023-04-03T01:43:33;61.37;;;57.17;;
5710;SDS011;61291;52.524;13.422;2023-04-03T01:45:58;63.73;;;58.67;;
5710;SDS011;61291;52.524;13.422;2023-04-03T01:48:24;65.10;;;59.80;;
5710;SDS011;61291;52.524;13.422;2023-04-03T01:50:49;62.40;;;58.20;;
5710;SDS011;61291;52.524;13.422;2023-04-03T01:53:15;62.50;;;58.10;;
5710;SDS011;61291;52.524;13.422;2023-04-03T01:55:41;62.70;;;58.20;;
5710;SDS011;61291;52.524;13.422;2023-04-03T01:58:06;65.70;;;61.37;;
5710;SDS011;61291;52.524;13.422;2023-04-03T02:00:32;63.47;;;59.13;;
5710;SDS011;61291;52.524;13.422;2023-04-03T02:02:57;61.47;;;56.88;;
5710;SDS011;61291;52.524;13.422;2023-04-03T02:05:23;63.53;;;58.97;;
5710;SDS011;61291;52.524;13.422;2023-04-03T02:07:48;61.83;;;56.93;;
5710;SDS011;61291;52.524;13.422;2023-04-03T02:10:14;66.43;;;60.50;;
5710;SDS011;61291;52.524;13.422;2023-04-03T02:12:40;64.53;;;59.63;;
5710;SDS011;61291;52.524;13.422;2023-04-03T02:15:05;65.93;;;61.40;;
5710;SDS011;61291;52.524;13.422;2023-04-03T02:17:32;67.00;;;62.50;;
5710;SDS011;61291;52.524;13.422;2023-04-03T02:19:57;64.40;;;60.00;;
5710;SDS011;61291;52.524;13.422;2023-04-03T02:22:23;69.93;;;63.37;;
5710;SDS011;61291;52.524;13.422;2023-04-03T02:24:48;66.80;;;61.87;;
5710;SDS011;61291;52.524;13.422;2023-04-03T02:27:14;66.53;;;61.93;;
5710;SDS011;61291;52.524;13.422;2023-04-03T02:29:40;69.87;;;65.00;;
5710;SDS011;61291;52.524;13.422;2023-04-03T02:32:05;68.90;;;64.40;;
5710;SDS011;61291;52.524;13.422;2023-04-03T02:34:31;70.50;;;65.30;;
5710;SDS011;61291;52.524;13.422;2023-04-03T02:36:56;68.03;;;63.27;;
5710;SDS011;61291;52.524;13.422;2023-04-03T02:39:22;66.27;;;61.80;;
5710;SDS011;61291;52.524;13.422;2023-04-03T02:41:47;67.10;;;62.20;;
5710;SDS011;61291;52.524;13.422;2023-04-03T02:44:13;62.70;;;57.77;;
5710;SDS011;61291;52.524;13.422;2023-04-03T02:46:39;52.57;;;48.67;;
5710;SDS011;61291;52.524;13.422;2023-04-03T02:49:04;63.10;;;59.10;;
5710;SDS011;61291;52.524;13.422;2023-04-03T02:51:30;66.80;;;62.50;;
5710;SDS011;61291;52.524;13.422;2023-04-03T02:53:56;66.43;;;61.10;;
5710;SDS011;61291;52.524;13.422;2023-04-03T02:56:21;63.63;;;59.53;;
5710;SDS011;61291;52.524;13.422;2023-04-03T02:58:47;64.20;;;59.87;;
5710;SDS011;61291;52.524;13.422;2023-04-03T03:01:13;62.87;;;58.57;;
5710;SDS011;61291;52.524;13.422;2023-04-03T03:03:39;63.67;;;58.67;;
5710;SDS011;61291;52.524;13.422;2023-04-03T03:06:05;63.47;;;59.17;;
5710;SDS011;61291;52.524;13.422;2023-04-03T03:08:32;60.23;;;55.70;;
5710;SDS011;61291;52.524;13.422;2023-04-03T03:10:58;60.30;;;56.40;;
5710;SDS011;61291;52.524;13.422;2023-04-03T03:13:24;59.73;;;55.77;;
5710;SDS011;61291;52.524;13.422;2023-04-03T03:15:50;61.10;;;56.97;;
5710;SDS011;61291;52.524;13.422;2023-04-03T03:18:16;63.63;;;58.87;;
5710;SDS011;61291;52.524;13.422;2023-04-03T03:20:41;61.43;;;57.00;;
5710;SDS011;61291;52.524;13.422;2023-04-03T03:23:07;61.77;;;57.50;;
5710;SDS011;61291;52.524;13.422;2023-04-03T03:25:33;60.87;;;56.33;;
5710;SDS011;61291;52.524;13.422;2023-04-03T03:28:02;61.07;;;55.63;;
5710;SDS011;61291;52.524;13.422;2023-04-03T03:30:28;60.13;;;56.03;;
5710;SDS011;61291;52.524;13.422;2023-04-03T03:32:53;62.77;;;58.37;;
5710;SDS011;61291;52.524;13.422;2023-04-03T03:35:18;61.07;;;56.90;;
5710;SDS011;61291;52.524;13.422;2023-04-03T03:37:44;62.03;;;57.77;;
5710;SDS011;61291;52.524;13.422;2023-04-03T03:40:10;60.83;;;56.77;;
5710;SDS011;61291;52.524;13.422;2023-04-03T03:42:37;61.87;;;57.37;;
5710;SDS011;61291;52.524;13.422;2023-04-03T03:45:03;62.23;;;57.53;;
5710;SDS011;61291;52.524;13.422;2023-04-03T03:47:28;63.93;;;58.63;;
5710;SDS011;61291;52.524;13.422;2023-04-03T03:49:54;59.83;;;56.00;;
5710;SDS011;61291;52.524;13.422;2023-04-03T03:52:19;60.70;;;56.67;;
5710;SDS011;61291;52.524;13.422;2023-04-03T03:54:45;60.70;;;56.50;;
5710;SDS011;61291;52.524;13.422;2023-04-03T03:57:10;62.30;;;57.80;;
5710;SDS011;61291;52.524;13.422;2023-04-03T03:59:36;62.53;;;57.87;;
5710;SDS011;61291;52.524;13.422;2023-04-03T04:02:02;61.67;;;57.33;;
5710;SDS011;61291;52.524;13.422;2023-04-03T04:04:27;63.50;;;59.30;;
5710;SDS011;61291;52.524;13.422;2023-04-03T04:06:53;61.57;;;56.77;;
5710;SDS011;61291;52.524;13.422;2023-04-03T04:09:18;62.63;;;58.43;;
5710;SDS011;61291;52.524;13.422;2023-04-03T04:11:44;61.23;;;57.00;;
5710;SDS011;61291;52.524;13.422;2023-04-03T04:14:09;61.93;;;57.43;;
5710;SDS011;61291;52.524;13.422;2023-04-03T04:16:37;60.53;;;56.43;;
5710;SDS011;61291;52.524;13.422;2023-04-03T04:19:02;65.73;;;61.27;;
5710;SDS011;61291;52.524;13.422;2023-04-03T04:21:28;61.10;;;56.77;;
5710;SDS011;61291;52.524;13.422;2023-04-03T04:23:53;60.43;;;56.17;;
5710;SDS011;61291;52.524;13.422;2023-04-03T04:26:19;60.77;;;56.27;;
5710;SDS011;61291;52.524;13.422;2023-04-03T04:28:45;62.90;;;57.57;;
5710;SDS011;61291;52.524;13.422;2023-04-03T04:31:10;60.33;;;56.33;;
5710;SDS011;61291;52.524;13.422;2023-04-03T04:33:36;63.70;;;59.50;;
5710;SDS011;61291;52.524;13.422;2023-04-03T04:36:01;63.93;;;59.73;;
5710;SDS011;61291;52.524;13.422;2023-04-03T04:38:27;61.17;;;57.07;;
5710;SDS011;61291;52.524;13.422;2023-04-03T04:40:52;68.70;;;63.10;;
5710;SDS011;61291;52.524;13.422;2023-04-03T04:43:18;59.97;;;55.77;;
5710;SDS011;61291;52.524;13.422;2023-04-03T04:45:44;60.57;;;56.73;;
5710;SDS011;61291;52.524;13.422;2023-04-03T04:48:09;61.23;;;56.93;;
5710;SDS011;61291;52.524;13.422;2023-04-03T04:50:35;59.63;;;55.27;;
5710;SDS011;61291;52.524;13.422;2023-04-03T04:53:00;59.40;;;55.37;;
5710;SDS011;61291;52.524;13.422;2023-04-03T04:55:26;58.17;;;54.37;;
5710;SDS011;61291;52.524;13.422;2023-04-03T04:57:51;47.03;;;43.43;;
5710;SDS011;61291;52.524;13.422;2023-04-03T05:00:17;59.17;;;54.93;;
5710;SDS011;61291;52.524;13.422;2023-04-03T05:02:43;58.80;;;54.70;;
5710;SDS011;61291;52.524;13.422;2023-04-03T05:05:09;57.30;;;53.20;;
5710;SDS011;61291;52.524;13.422;2023-04-03T05:07:34;61.30;;;56.90;;
5710;SDS011;61291;52.524;13.422;2023-04-03T05:10:00;56.17;;;52.53;;
5710;SDS011;61291;52.524;13.422;2023-04-03T05:12:27;60.63;;;56.23;;
5710;SDS011;61291;52.524;13.422;2023-04-03T05:14:53;58.37;;;54.23;;
5710;SDS011;61291;52.524;13.422;2023-04-03T05:17:19;64.23;;;59.37;;
5710;SDS011;61291;52.524;13.422;2023-04-03T05:19:45;64.03;;;59.63;;
5710;SDS011;61291;52.524;13.422;2023-04-03T05:22:10;60.13;;;55.87;;
5710;SDS011;61291;52.524;13.422;2023-04-03T05:24:36;62.40;;;58.00;;
5710;SDS011;61291;52.524;13.422;2023-04-03T05:27:01;62.10;;;57.90;;
5710;SDS011;61291;52.524;13.422;2023-04-03T05:29:27;62.30;;;57.50;;
5710;SDS011;61291;52.524;13.422;2023-04-03T05:31:52;63.83;;;59.47;;
5710;SDS011;61291;52.524;13.422;2023-04-03T05:34:18;66.00;;;61.47;;
5710;SDS011;61291;52.524;13.422;2023-04-03T05:36:44;58.97;;;54.90;;
5710;SDS011;61291;52.524;13.422;2023-04-03T05:39:09;60.00;;;55.53;;
5710;SDS011;61291;52.524;13.422;2023-04-03T05:41:35;59.00;;;53.87;;
5710;SDS011;61291;52.524;13.422;2023-04-03T05:44:00;60.27;;;56.10;;
5710;SDS011;61291;52.524;13.422;2023-04-03T05:46:26;61.37;;;56.53;;
5710;SDS011;61291;52.524;13.422;2023-04-03T05:48:51;61.00;;;56.70;;
5710;SDS011;61291;52.524;13.422;2023-04-03T05:51:18;59.90;;;55.80;;
5710;SDS011;61291;52.524;13.422;2023-04-03T05:53:46;61.30;;;56.53;;
5710;SDS011;61291;52.524;13.422;2023-04-03T05:56:13;64.90;;;60.20;;
5710;SDS011;61291;52.524;13.422;2023-04-03T05:58:39;63.40;;;58.37;;
5710;SDS011;61291;52.524;13.422;2023-04-03T06:01:05;63.07;;;58.33;;
5710;SDS011;61291;52.524;13.422;2023-04-03T06:03:30;62.13;;;57.73;;
5710;SDS011;61291;52.524;13.422;2023-04-03T06:05:56;62.50;;;57.60;;
5710;SDS011;61291;52.524;13.422;2023-04-03T06:08:22;63.97;;;58.60;;
5710;SDS011;61291;52.524;13.422;2023-04-03T06:10:48;65.00;;;60.30;;
5710;SDS011;61291;52.524;13.422;2023-04-03T06:13:15;63.10;;;58.33;;
5710;SDS011;61291;52.524;13.422;2023-04-03T06:15:40;63.00;;;58.27;;
5710;SDS011;61291;52.524;13.422;2023-04-03T06:18:06;66.27;;;61.33;;
5710;SDS011;61291;52.524;13.422;2023-04-03T06:20:32;57.83;;;53.67;;
5710;SDS011;61291;52.524;13.422;2023-04-03T06:23:08;64.93;;;60.33;;
5710;SDS011;61291;52.524;13.422;2023-04-03T06:25:33;64.87;;;60.63;;
5710;SDS011;61291;52.524;13.422;2023-04-03T06:27:59;67.70;;;62.83;;
5710;SDS011;61291;52.524;13.422;2023-04-03T06:30:24;66.60;;;62.10;;
5710;SDS011;61291;52.524;13.422;2023-04-03T06:32:50;63.70;;;59.40;;
5710;SDS011;61291;52.524;13.422;2023-04-03T06:35:16;66.50;;;61.90;;
5710;SDS011;61291;52.524;13.422;2023-04-03T06:37:42;65.63;;;61.10;;
5710;SDS011;61291;52.524;13.422;2023-04-03T06:40:11;66.90;;;62.23;;
5710;SDS011;61291;52.524;13.422;2023-04-03T06:42:42;62.20;;;58.10;;
5710;SDS011;61291;52.524;13.422;2023-04-03T06:45:08;66.97;;;62.50;;
5710;SDS011;61291;52.524;13.422;2023-04-03T06:47:36;66.83;;;61.70;;
5710;SDS011;61291;52.524;13.422;2023-04-03T06:50:01;62.50;;;57.90;;
5710;SDS011;61291;52.524;13.422;2023-04-03T06:52:27;63.37;;;58.97;;
5710;SDS011;61291;52.524;13.422;2023-04-03T06:54:52;63.10;;;58.50;;
5710;SDS011;61291;52.524;13.422;2023-04-03T06:57:22;63.40;;;58.50;;
5710;SDS011;61291;52.524;13.422;2023-04-03T06:59:47;63.77;;;59.43;;
5710;SDS011;61291;52.524;13.422;2023-04-03T07:02:13;67.30;;;62.63;;
5710;SDS011;61291;52.524;13.422;2023-04-03T07:04:38;62.43;;;58.20;;
5710;SDS011;61291;52.524;13.422;2023-04-03T07:07:03;68.67;;;64.17;;
5710;SDS011;61291;52.524;13.422;2023-04-03T07:09:29;65.93;;;61.30;;
5710;SDS011;61291;52.524;13.422;2023-04-03T07:11:55;68.03;;;63.57;;
5710;SDS011;61291;52.524;13.422;2023-04-03T07:14:20;66.13;;;61.50;;
5710;SDS011;61291;52.524;13.422;2023-04-03T07:16:46;67.50;;;62.90;;
5710;SDS011;61291;52.524;13.422;2023-04-03T07:19:11;68.87;;;63.50;;
5710;SDS011;61291;52.524;13.422;2023-04-03T07:21:37;64.97;;;60.57;;
5710;SDS011;61291;52.524;13.422;2023-04-03T07:24:02;66.90;;;62.27;;
5710;SDS011;61291;52.524;13.422;2023-04-03T07:26:28;66.13;;;61.50;;
5710;SDS011;61291;52.524;13.422;2023-04-03T07:28:54;72.10;;;67.27;;
5710;SDS011;61291;52.524;13.422;2023-04-03T07:31:19;67.63;;;62.70;;
5710;SDS011;61291;52.524;13.422;2023-04-03T07:33:45;65.07;;;60.57;;
5710;SDS011;61291;52.524;13.422;2023-04-03T07:36:13;68.23;;;63.53;;
5710;SDS011;61291;52.524;13.422;2023-04-03T07:38:41;74.13;;;67.90;;
5710;SDS011;61291;52.524;13.422;2023-04-03T07:41:06;75.73;;;70.20;;
5710;SDS011;61291;52.524;13.422;2023-04-03T07:43:35;67.30;;;62.53;;
5710;SDS011;61291;52.524;13.422;2023-04-03T07:46:02;68.00;;;63.17;;
5710;SDS011;61291;52.524;13.422;2023-04-03T07:48:30;76.63;;;71.50;;
5710;SDS011;61291;52.524;13.422;2023-04-03T07:50:58;70.37;;;65.77;;
5710;SDS011;61291;52.524;13.422;2023-04-03T07:53:25;70.20;;;65.70;;
5710;SDS011;61291;52.524;13.422;2023-04-03T07:55:50;69.53;;;65.03;;
5710;SDS011;61291;52.524;13.422;2023-04-03T07:58:20;68.30;;;63.47;;
5710;SDS011;61291;52.524;13.422;2023-04-03T08:00:45;73.90;;;68.93;;
5710;SDS011;61291;52.524;13.422;2023-04-03T08:03:11;72.07;;;66.90;;
5710;SDS011;61291;52.524;13.422;2023-04-03T08:05:38;70.77;;;66.17;;
5710;SDS011;61291;52.524;13.422;2023-04-03T08:08:06;66.93;;;62.20;;
5710;SDS011;61291;52.524;13.422;2023-04-03T08:10:32;66.10;;;61.90;;
5710;SDS011;61291;52.524;13.422;2023-04-03T08:12:58;68.83;;;64.10;;
5710;SDS011;61291;52.524;13.422;2023-04-03T08:15:23;66.77;;;62.37;;
5710;SDS011;61291;52.524;13.422;2023-04-03T08:17:49;63.80;;;59.60;;
5710;SDS011;61291;52.524;13.422;2023-04-03T08:20:15;67.60;;;63.30;;
5710;SDS011;61291;52.524;13.422;2023-04-03T08:22:42;70.63;;;65.93;;
5710;SDS011;61291;52.524;13.422;2023-04-03T08:25:07;70.37;;;65.57;;
5710;SDS011;61291;52.524;13.422;2023-04-03T08:27:33;73.00;;;68.00;;
5710;SDS011;61291;52.524;13.422;2023-04-03T08:29:59;69.33;;;64.83;;
5710;SDS011;61291;52.524;13.422;2023-04-03T08:32:25;68.57;;;64.07;;
5710;SDS011;61291;52.524;13.422;2023-04-03T08:34:51;68.20;;;63.60;;
5710;SDS011;61291;52.524;13.422;2023-04-03T08:37:16;64.33;;;60.13;;
5710;SDS011;61291;52.524;13.422;2023-04-03T08:39:42;67.60;;;63.20;;
5710;SDS011;61291;52.524;13.422;2023-04-03T08:42:14;64.40;;;60.20;;
5710;SDS011;61291;52.524;13.422;2023-04-03T08:50:58;64.87;;;60.23;;
5710;SDS011;61291;52.524;13.422;2023-04-03T08:53:28;66.93;;;62.20;;
5710;SDS011;61291;52.524;13.422;2023-04-03T08:55:57;65.73;;;61.63;;
5710;SDS011;61291;52.524;13.422;2023-04-03T08:58:28;68.13;;;63.73;;
5710;SDS011;61291;52.524;13.422;2023-04-03T09:01:17;69.93;;;64.80;;
5710;SDS011;61291;52.524;13.422;2023-04-03T09:04:11;66.00;;;61.70;;
5710;SDS011;61291;52.524;13.422;2023-04-03T09:06:39;72.37;;;67.60;;
5710;SDS011;61291;52.524;13.422;2023-04-03T09:09:15;68.50;;;63.70;;
5710;SDS011;61291;52.524;13.422;2023-04-03T09:12:13;67.13;;;62.53;;
5710;SDS011;61291;52.524;13.422;2023-04-03T09:17:51;69.13;;;64.10;;
5710;SDS011;61291;52.524;13.422;2023-04-03T09:20:43;70.43;;;65.87;;
5710;SDS011;61291;52.524;13.422;2023-04-03T09:23:33;70.90;;;66.50;;
5710;SDS011;61291;52.524;13.422;2023-04-03T09:26:08;75.77;;;70.67;;
5710;SDS011;61291;52.524;13.422;2023-04-03T09:28:39;79.90;;;74.53;;
5710;SDS011;61291;52.524;13.422;2023-04-03T09:31:16;75.47;;;70.47;;
5710;SDS011;61291;52.524;13.422;2023-04-03T09:33:49;53.17;;;49.58;;
5710;SDS011;61291;52.524;13.422;2023-04-03T09:39:04;70.60;;;66.10;;
5710;SDS011;61291;52.524;13.422;2023-04-03T09:41:32;67.60;;;63.00;;
5710;SDS011;61291;52.524;13.422;2023-04-03T09:43:58;70.00;;;65.53;;
5710;SDS011;61291;52.524;13.422;2023-04-03T09:46:31;70.50;;;66.10;;
5710;SDS011;61291;52.524;13.422;2023-04-03T09:48:58;66.73;;;62.33;;
5710;SDS011;61291;52.524;13.422;2023-04-03T09:51:29;69.30;;;64.93;;
5710;SDS011;61291;52.524;13.422;2023-04-03T09:53:56;65.00;;;60.80;;
5710;SDS011;61291;52.524;13.422;2023-04-03T09:56:23;67.47;;;63.07;;
5710;SDS011;61291;52.524;13.422;2023-04-03T10:01:38;62.03;;;58.03;;
5710;SDS011;61291;52.524;13.422;2023-04-03T10:04:07;65.45;;;60.95;;
5710;SDS011;61291;52.524;13.422;2023-04-03T10:06:51;65.30;;;60.60;;
5710;SDS011;61291;52.524;13.422;2023-04-03T10:09:22;66.07;;;61.67;;
5710;SDS011;61291;52.524;13.422;2023-04-03T10:14:38;62.53;;;58.33;;
5710;SDS011;61291;52.524;13.422;2023-04-03T10:17:51;60.37;;;56.37;;
5710;SDS011;61291;52.524;13.422;2023-04-03T10:22:46;66.40;;;61.93;;
5710;SDS011;61291;52.524;13.422;2023-04-03T10:25:26;61.30;;;57.30;;
5710;SDS011;61291;52.524;13.422;2023-04-03T10:28:01;66.70;;;62.10;;
5710;SDS011;61291;52.524;13.422;2023-04-03T10:30:42;63.90;;;59.40;;
5710;SDS011;61291;52.524;13.422;2023-04-03T10:39:00;66.40;;;62.00;;
5710;SDS011;61291;52.524;13.422;2023-04-03T10:41:39;64.60;;;60.10;;
5710;SDS011;61291;52.524;13.422;2023-04-03T10:44:11;65.37;;;60.97;;
5710;SDS011;61291;52.524;13.422;2023-04-03T10:47:02;67.77;;;63.47;;
5710;SDS011;61291;52.524;13.422;2023-04-03T10:52:53;63.03;;;58.73;;
5710;SDS011;61291;52.524;13.422;2023-04-03T10:55:49;60.80;;;56.70;;
5710;SDS011;61291;52.524;13.422;2023-04-03T10:58:44;65.33;;;61.10;;
5710;SDS011;61291;52.524;13.422;2023-04-03T11:01:18;65.60;;;61.50;;
5710;SDS011;61291;52.524;13.422;2023-04-03T11:03:49;69.77;;;65.20;;
5710;SDS011;61291;52.524;13.422;2023-04-03T11:06:25;65.93;;;61.43;;
5710;SDS011;61291;52.524;13.422;2023-04-03T11:08:54;65.17;;;61.00;;
5710;SDS011;61291;52.524;13.422;2023-04-03T11:11:29;62.20;;;58.20;;
5710;SDS011;61291;52.524;13.422;2023-04-03T11:14:11;64.57;;;60.10;;
5710;SDS011;61291;52.524;13.422;2023-04-03T11:16:45;61.10;;;57.00;;
5710;SDS011;61291;52.524;13.422;2023-04-03T11:19:17;60.50;;;56.33;;
5710;SDS011;61291;52.524;13.422;2023-04-03T11:21:54;60.17;;;56.03;;
5710;SDS011;61291;52.524;13.422;2023-04-03T11:24:26;64.70;;;60.30;;
5710;SDS011;61291;52.524;13.422;2023-04-03T11:26:55;65.97;;;61.57;;
5710;SDS011;61291;52.524;13.422;2023-04-03T11:29:24;66.03;;;61.23;;
5710;SDS011;61291;52.524;13.422;2023-04-03T11:34:53;51.92;;;48.38;;
5710;SDS011;61291;52.524;13.422;2023-04-03T11:37:39;67.70;;;63.10;;
5710;SDS011;61291;52.524;13.422;2023-04-03T11:42:43;66.43;;;61.50;;
5710;SDS011;61291;52.524;13.422;2023-04-03T11:45:16;61.70;;;57.60;;
5710;SDS011;61291;52.524;13.422;2023-04-03T11:47:55;62.77;;;58.37;;
5710;SDS011;61291;52.524;13.422;2023-04-03T11:53:25;64.53;;;60.30;;
5710;SDS011;61291;52.524;13.422;2023-04-03T11:55:53;65.33;;;61.17;;
5710;SDS011;61291;52.524;13.422;2023-04-03T11:58:27;64.67;;;60.47;;
5710;SDS011;61291;52.524;13.422;2023-04-03T12:01:05;66.10;;;61.63;;
5710;SDS011;61291;52.524;13.422;2023-04-03T12:32:06;64.43;;;59.50;;
5710;SDS011;61291;52.524;13.422;2023-04-03T12:40:37;62.20;;;57.97;;
5710;SDS011;61291;52.524;13.422;2023-04-03T12:46:03;65.40;;;61.00;;
5710;SDS011;61291;52.524;13.422;2023-04-03T12:51:14;60.07;;;56.00;;
5710;SDS011;61291;52.524;13.422;2023-04-03T12:53:44;60.50;;;56.60;;
5710;SDS011;61291;52.524;13.422;2023-04-03T12:58:56;67.50;;;63.03;;
5710;SDS011;61291;52.524;13.422;2023-04-03T13:01:43;62.97;;;58.77;;
5710;SDS011;61291;52.524;13.422;2023-04-03T13:04:17;65.10;;;60.83;;
5710;SDS011;61291;52.524;13.422;2023-04-03T13:06:43;69.20;;;64.67;;
5710;SDS011;61291;52.524;13.422;2023-04-03T13:09:20;69.47;;;64.70;;
5710;SDS011;61291;52.524;13.422;2023-04-03T13:11:48;66.00;;;61.63;;
5710;SDS011;61291;52.524;13.422;2023-04-03T13:14:20;71.40;;;67.10;;
5710;SDS011;61291;52.524;13.422;2023-04-03T13:16:58;69.93;;;64.60;;
5710;SDS011;61291;52.524;13.422;2023-04-03T13:19:25;63.60;;;59.30;;
5710;SDS011;61291;52.524;13.422;2023-04-03T13:22:02;67.17;;;62.87;;
5710;SDS011;61291;52.524;13.422;2023-04-03T13:24:33;71.53;;;66.57;;
5710;SDS011;61291;52.524;13.422;2023-04-03T13:27:02;68.70;;;64.20;;
5710;SDS011;61291;52.524;13.422;2023-04-03T13:29:29;68.47;;;63.97;;
5710;SDS011;61291;52.524;13.422;2023-04-03T13:32:00;68.20;;;63.90;;
5710;SDS011;61291;52.524;13.422;2023-04-03T13:34:29;65.80;;;61.30;;
5710;SDS011;61291;52.524;13.422;2023-04-03T13:37:01;68.73;;;63.87;;
5710;SDS011;61291;52.524;13.422;2023-04-03T13:39:33;69.27;;;64.10;;
5710;SDS011;61291;52.524;13.422;2023-04-03T13:42:22;68.60;;;63.37;;
5710;SDS011;61291;52.524;13.422;2023-04-03T13:45:05;70.37;;;65.17;;
5710;SDS011;61291;52.524;13.422;2023-04-03T13:47:41;66.90;;;62.50;;
5710;SDS011;61291;52.524;13.422;2023-04-03T13:53:11;66.67;;;62.30;;
5710;SDS011;61291;52.524;13.422;2023-04-03T13:55:51;69.37;;;64.53;;
5710;SDS011;61291;52.524;13.422;2023-04-03T13:58:30;66.80;;;62.40;;
5710;SDS011;61291;52.524;13.422;2023-04-03T14:01:06;66.87;;;62.50;;
5710;SDS011;61291;52.524;13.422;2023-04-03T14:03:42;64.47;;;60.20;;
5710;SDS011;61291;52.524;13.422;2023-04-03T14:06:13;67.07;;;62.37;;
5710;SDS011;61291;52.524;13.422;2023-04-03T14:08:41;69.27;;;64.83;;
5710;SDS011;61291;52.524;13.422;2023-04-03T14:11:12;68.50;;;63.83;;
5710;SDS011;61291;52.524;13.422;2023-04-03T14:13:40;72.60;;;66.80;;
5710;SDS011;61291;52.524;13.422;2023-04-03T14:16:06;66.93;;;62.67;;
5710;SDS011;61291;52.524;13.422;2023-04-03T14:18:32;63.90;;;59.47;;
5710;SDS011;61291;52.524;13.422;2023-04-03T14:20:57;66.03;;;60.87;;
5710;SDS011;61291;52.524;13.422;2023-04-03T14:23:23;67.87;;;63.27;;
5710;SDS011;61291;52.524;13.422;2023-04-03T14:25:48;65.30;;;60.87;;
5710;SDS011;61291;52.524;13.422;2023-04-03T14:28:16;66.80;;;62.50;;
5710;SDS011;61291;52.524;13.422;2023-04-03T14:30:44;66.77;;;62.47;;
5710;SDS011;61291;52.524;13.422;2023-04-03T14:33:13;64.30;;;60.00;;
5710;SDS011;61291;52.524;13.422;2023-04-03T14:35:40;65.20;;;60.27;;
5710;SDS011;61291;52.524;13.422;2023-04-03T14:38:20;62.87;;;58.73;;
5710;SDS011;61291;52.524;13.422;2023-04-03T14:40:49;61.93;;;57.83;;
5710;SDS011;61291;52.524;13.422;2023-04-03T14:43:15;61.27;;;56.97;;
5710;SDS011;61291;52.524;13.422;2023-04-03T14:45:41;62.80;;;58.50;;
5710;SDS011;61291;52.524;13.422;2023-04-03T14:48:09;61.23;;;57.30;;
5710;SDS011;61291;52.524;13.422;2023-04-03T14:50:44;62.13;;;58.13;;
5710;SDS011;61291;52.524;13.422;2023-04-03T14:53:10;59.57;;;55.70;;
5710;SDS011;61291;52.524;13.422;2023-04-03T14:55:39;62.97;;;58.43;;
5710;SDS011;61291;52.524;13.422;2023-04-03T14:58:08;64.20;;;59.70;;
5710;SDS011;61291;52.524;13.422;2023-04-03T15:00:38;62.93;;;58.43;;
5710;SDS011;61291;52.524;13.422;2023-04-03T15:03:04;60.50;;;56.03;;
5710;SDS011;61291;52.524;13.422;2023-04-03T15:05:29;61.13;;;56.53;;
5710;SDS011;61291;52.524;13.422;2023-04-03T15:07:55;57.80;;;53.90;;
5710;SDS011;61291;52.524;13.422;2023-04-03T15:10:26;59.40;;;55.40;;
5710;SDS011;61291;52.524;13.422;2023-04-03T15:12:53;60.57;;;56.37;;
5710;SDS011;61291;52.524;13.422;2023-04-03T15:15:20;60.30;;;56.27;;
5710;SDS011;61291;52.524;13.422;2023-04-03T15:17:49;61.33;;;57.10;;
5710;SDS011;61291;52.524;13.422;2023-04-03T15:20:19;60.37;;;56.63;;
5710;SDS011;61291;52.524;13.422;2023-04-03T15:22:46;60.83;;;56.83;;
5710;SDS011;61291;52.524;13.422;2023-04-03T15:25:12;56.67;;;52.87;;
5710;SDS011;61291;52.524;13.422;2023-04-03T15:27:37;58.50;;;54.70;;
5710;SDS011;61291;52.524;13.422;2023-04-03T15:30:05;59.90;;;55.70;;
5710;SDS011;61291;52.524;13.422;2023-04-03T15:32:32;59.27;;;55.37;;
5710;SDS011;61291;52.524;13.422;2023-04-03T15:34:59;56.23;;;52.73;;
5710;SDS011;61291;52.524;13.422;2023-04-03T15:37:24;59.90;;;55.80;;
5710;SDS011;61291;52.524;13.422;2023-04-03T15:39:50;67.47;;;62.63;;
5710;SDS011;61291;52.524;13.422;2023-04-03T15:42:16;59.60;;;55.80;;
5710;SDS011;61291;52.524;13.422;2023-04-03T15:44:41;58.90;;;55.20;;
5710;SDS011;61291;52.524;13.422;2023-04-03T15:47:07;61.90;;;58.03;;
5710;SDS011;61291;52.524;13.422;2023-04-03T15:49:33;61.50;;;57.40;;
5710;SDS011;61291;52.524;13.422;2023-04-03T15:51:59;59.30;;;55.60;;
5710;SDS011;61291;52.524;13.422;2023-04-03T15:54:25;58.43;;;54.73;;
5710;SDS011;61291;52.524;13.422;2023-04-03T15:56:51;58.57;;;54.90;;
5710;SDS011;61291;52.524;13.422;2023-04-03T15:59:17;58.13;;;54.00;;